Time;durP1;ratioP1;P1;durP2;ratioP2;P2;SDS_P1;SDS_P2;PMS_P1;PMS_P2;Temp;Humidity;BMP_temperature;BMP_pressure;BME280_temperature;BME280_humidity;BME280_pressure;Samples;Min_cycle;Max_cycle;Signal;HPM_P1;HPM_P2
2022/12/15 00:40:12;;;;;;;22.60;14.50;;;;;;;;;;4987110;28;20611;-68
2022/12/15 00:42:38;;;;;;;22.23;15.05;;;;;;;;;;4985203;28;20050;-68
2022/12/15 00:45:03;;;;;;;26.80;15.82;;;;;;;;;;4986007;28;20042;-65
2022/12/15 00:47:31;;;;;;;23.48;14.32;;;;;;;;;;4984621;28;20064;-64
2022/12/15 01:20:19;;;;;;;18.52;11.63;;;;;;;;;;4984768;28;20061;-67
2022/12/15 01:22:49;;;;;;;24.38;13.85;;;;;;;;;;4995682;28;20092;-68
2022/12/15 01:25:16;;;;;;;20.83;12.23;;;;;;;;;;4984223;28;20042;-68
2022/12/15 01:27:42;;;;;;;25.52;14.45;;;;;;;;;;4987124;28;20057;-66
2022/12/15 01:30:10;;;;;;;29.02;16.58;;;;;;;;;;4988953;28;20104;-67
2022/12/15 01:32:36;;;;;;;22.38;14.18;;;;;;;;;;4988254;28;20523;-68
2022/12/15 01:35:03;;;;;;;25.70;15.50;;;;;;;;;;4988067;28;20085;-65
2022/12/15 01:37:29;;;;;;;27.92;15.02;;;;;;;;;;4989389;28;20054;-65
2022/12/15 01:42:38;;;;;;;25.92;16.05;;;;;;;;;;4990960;28;20132;-68
2022/12/15 01:45:28;;;;;;;29.20;17.65;;;;;;;;;;4992084;28;20504;-65
2022/12/15 01:48:17;;;;;;;30.63;17.45;;;;;;;;;;4984992;28;20057;-69
2022/12/15 01:50:49;;;;;;;28.85;17.08;;;;;;;;;;4960267;28;20054;-68
2022/12/15 01:53:14;;;;;;;29.15;18.15;;;;;;;;;;4988258;28;20042;-65
2022/12/15 01:55:43;;;;;;;32.22;18.60;;;;;;;;;;5003261;28;20061;-66
2022/12/15 01:58:10;;;;;;;30.42;17.52;;;;;;;;;;4984370;28;20065;-67
2022/12/15 02:00:36;;;;;;;31.02;18.05;;;;;;;;;;4985281;28;20046;-66
2022/12/15 02:03:04;;;;;;;29.67;17.05;;;;;;;;;;4986383;28;20050;-66
2022/12/15 02:05:30;;;;;;;28.13;17.67;;;;;;;;;;4986838;28;20057;-68
2022/12/15 02:07:58;;;;;;;29.08;17.52;;;;;;;;;;4985343;28;20054;-68
2022/12/15 02:10:28;;;;;;;29.23;16.50;;;;;;;;;;4985586;28;20073;-68
2022/12/15 02:13:15;;;;;;;26.45;15.98;;;;;;;;;;4986068;28;20435;-69
2022/12/15 02:15:53;;;;;;;27.25;17.45;;;;;;;;;;4960585;28;20050;-67
2022/12/15 02:18:34;;;;;;;31.73;17.52;;;;;;;;;;4982958;28;20169;-68
2022/12/15 02:21:10;;;;;;;27.67;16.45;;;;;;;;;;4982427;28;20096;-67
2022/12/15 02:24:05;;;;;;;26.80;16.20;;;;;;;;;;4984173;28;20061;-67
2022/12/15 02:26:48;;;;;;;25.52;14.68;;;;;;;;;;4984039;28;20053;-69
2022/12/15 02:29:28;;;;;;;27.80;16.13;;;;;;;;;;4982873;28;20052;-66
2022/12/15 02:31:59;;;;;;;25.65;15.80;;;;;;;;;;4983501;28;20455;-67
2022/12/15 02:34:44;;;;;;;22.65;14.52;;;;;;;;;;4984450;28;20062;-68
2022/12/15 02:37:16;;;;;;;24.45;13.93;;;;;;;;;;4981850;28;20077;-68
2022/12/15 02:39:42;;;;;;;21.50;14.30;;;;;;;;;;4982493;28;20058;-68
2022/12/15 02:42:09;;;;;;;25.05;15.20;;;;;;;;;;4982035;28;20046;-67
2022/12/15 02:44:43;;;;;;;25.27;15.75;;;;;;;;;;4982303;28;20080;-68
2022/12/15 02:47:44;;;;;;;24.42;15.15;;;;;;;;;;4981454;28;20137;-68
2022/12/15 02:50:47;;;;;;;24.98;15.77;;;;;;;;;;4982082;28;20156;-69
2022/12/15 02:53:44;;;;;;;23.58;14.20;;;;;;;;;;4981308;28;20050;-68
2022/12/15 02:56:22;;;;;;;25.98;15.55;;;;;;;;;;4982001;28;20050;-68
2022/12/15 02:59:13;;;;;;;24.60;15.32;;;;;;;;;;4981292;28;20137;-68
2022/12/15 03:02:00;;;;;;;25.97;15.57;;;;;;;;;;4979572;28;20050;-68
2022/12/15 03:04:26;;;;;;;24.27;15.15;;;;;;;;;;4981378;28;20138;-68
2022/12/15 03:06:56;;;;;;;18.33;9.95;;;;;;;;;;4981391;28;20152;-69
2022/12/15 03:09:22;;;;;;;22.85;14.95;;;;;;;;;;4981700;28;20034;-68
2022/12/15 03:11:47;;;;;;;26.00;15.27;;;;;;;;;;4982022;28;20459;-68
2022/12/15 03:14:12;;;;;;;23.63;14.88;;;;;;;;;;4981340;28;20050;-68
2022/12/15 03:16:38;;;;;;;24.55;14.48;;;;;;;;;;4981216;28;20050;-68
2022/12/15 03:19:03;;;;;;;26.98;16.10;;;;;;;;;;4981750;28;20065;-68
2022/12/15 03:21:29;;;;;;;24.83;15.75;;;;;;;;;;4981332;28;20518;-68
2022/12/15 03:23:54;;;;;;;27.65;16.55;;;;;;;;;;4981873;28;20054;-68
2022/12/15 03:26:20;;;;;;;26.40;16.20;;;;;;;;;;4981127;28;20125;-68
2022/12/15 03:28:46;;;;;;;28.35;16.73;;;;;;;;;;4981014;28;20706;-68
2022/12/15 03:31:11;;;;;;;27.63;16.33;;;;;;;;;;4981198;28;20183;-69
2022/12/15 03:33:37;;;;;;;25.90;15.45;;;;;;;;;;4981735;28;20058;-69
2022/12/15 03:36:03;;;;;;;30.65;16.40;;;;;;;;;;4981471;28;20088;-67
2022/12/15 03:38:29;;;;;;;27.77;15.50;;;;;;;;;;4980111;28;20514;-68
2022/12/15 03:40:54;;;;;;;27.20;16.30;;;;;;;;;;4980187;28;20491;-68
2022/12/15 03:43:20;;;;;;;27.70;16.13;;;;;;;;;;4981141;28;20046;-65
2022/12/15 03:45:45;;;;;;;28.23;16.90;;;;;;;;;;4981450;28;20514;-65
2022/12/15 03:48:10;;;;;;;30.35;16.85;;;;;;;;;;4980219;28;20377;-66
2022/12/15 03:50:36;;;;;;;28.50;16.98;;;;;;;;;;4981333;28;20408;-66
2022/12/15 03:53:03;;;;;;;27.50;15.68;;;;;;;;;;4981401;28;20056;-66
2022/12/15 03:55:29;;;;;;;29.33;16.70;;;;;;;;;;4980972;28;20061;-66
2022/12/15 03:57:55;;;;;;;28.83;16.88;;;;;;;;;;4980764;28;20046;-65
2022/12/15 04:00:21;;;;;;;27.30;16.02;;;;;;;;;;4980421;28;20050;-65
2022/12/15 04:02:47;;;;;;;29.17;16.95;;;;;;;;;;4978466;28;20173;-66
2022/12/15 04:05:25;;;;;;;33.45;20.00;;;;;;;;;;4980812;28;20050;-66
2022/12/15 04:07:52;;;;;;;28.40;16.48;;;;;;;;;;4980427;28;20052;-66
2022/12/15 04:10:18;;;;;;;29.50;18.25;;;;;;;;;;4980576;28;20137;-66
2022/12/15 04:12:43;;;;;;;34.15;19.83;;;;;;;;;;4980799;28;20133;-65
2022/12/15 04:15:10;;;;;;;35.63;18.50;;;;;;;;;;4979601;28;20042;-66
2022/12/15 04:17:36;;;;;;;32.83;16.85;;;;;;;;;;4980444;28;20074;-66
2022/12/15 04:20:08;;;;;;;35.13;19.13;;;;;;;;;;4981009;28;20531;-66
2022/12/15 04:22:34;;;;;;;;;;;;;;;;;;4980580;28;20050;-66
2022/12/15 05:33:24;;;;;;;44.05;21.25;;;;;;;;;;4981318;28;20038;-68
2022/12/15 05:35:50;;;;;;;43.50;21.50;;;;;;;;;;4981135;28;20093;-68
2022/12/15 05:38:15;;;;;;;44.50;22.90;;;;;;;;;;4980438;28;20478;-69
2022/12/15 05:40:41;;;;;;;46.55;21.77;;;;;;;;;;4981650;28;20722;-68
2022/12/15 05:43:06;;;;;;;61.00;29.52;;;;;;;;;;4980941;28;20038;-68
2022/12/15 05:45:32;;;;;;;48.90;24.35;;;;;;;;;;4981713;28;20683;-68
2022/12/15 05:47:57;;;;;;;62.40;30.77;;;;;;;;;;4980926;28;20050;-68
2022/12/15 05:50:23;;;;;;;39.03;20.58;;;;;;;;;;4981199;28;20046;-68
2022/12/15 05:52:51;;;;;;;46.55;22.42;;;;;;;;;;4982491;28;20050;-68
2022/12/15 05:55:17;;;;;;;43.42;22.25;;;;;;;;;;4981181;28;20053;-68
2022/12/15 05:57:49;;;;;;;53.85;24.70;;;;;;;;;;4980679;28;20148;-69
2022/12/15 06:00:14;;;;;;;42.47;19.38;;;;;;;;;;4980592;28;20443;-69
2022/12/15 06:02:40;;;;;;;53.35;24.90;;;;;;;;;;4981419;28;20054;-67
2022/12/15 06:05:06;;;;;;;55.75;27.02;;;;;;;;;;4982260;28;20566;-68
2022/12/15 06:07:32;;;;;;;56.72;24.63;;;;;;;;;;4981090;28;20156;-67
2022/12/15 06:09:58;;;;;;;46.33;24.33;;;;;;;;;;4982224;28;20053;-67
2022/12/15 06:12:23;;;;;;;47.58;22.92;;;;;;;;;;4981067;28;20038;-68
2022/12/15 06:14:48;;;;;;;49.92;25.42;;;;;;;;;;4982883;28;20046;-68
2022/12/15 06:17:14;;;;;;;51.38;27.88;;;;;;;;;;4981174;28;20050;-68
2022/12/15 06:19:39;;;;;;;51.67;25.48;;;;;;;;;;4982358;28;20062;-68
2022/12/15 06:22:05;;;;;;;51.42;25.02;;;;;;;;;;4981388;28;20042;-68
2022/12/15 06:24:30;;;;;;;49.40;25.33;;;;;;;;;;4981483;28;20105;-67
2022/12/15 06:26:56;;;;;;;55.90;26.33;;;;;;;;;;4981537;28;20434;-67
2022/12/15 06:29:21;;;;;;;56.47;26.15;;;;;;;;;;4981645;28;21035;-67
2022/12/15 06:31:47;;;;;;;36.92;19.15;;;;;;;;;;4980394;28;20065;-68
2022/12/15 06:34:15;;;;;;;61.85;26.83;;;;;;;;;;4980661;28;20066;-68
2022/12/15 06:36:41;;;;;;;44.10;20.83;;;;;;;;;;4981831;28;20053;-68
2022/12/15 06:39:10;;;;;;;46.70;24.02;;;;;;;;;;4981103;28;20053;-68
2022/12/15 06:41:36;;;;;;;49.10;24.48;;;;;;;;;;4981965;28;20077;-68
2022/12/15 06:44:02;;;;;;;55.15;26.58;;;;;;;;;;4981778;28;20077;-68
2022/12/15 06:46:29;;;;;;;57.92;29.08;;;;;;;;;;4982582;28;20050;-68
2022/12/15 06:48:54;;;;;;;41.30;21.13;;;;;;;;;;4982269;28;20471;-67
2022/12/15 06:51:20;;;;;;;49.42;24.92;;;;;;;;;;4982033;28;20824;-68
2022/12/15 06:53:49;;;;;;;51.92;24.83;;;;;;;;;;4981472;28;20511;-68
2022/12/15 06:56:19;;;;;;;29.67;17.00;;;;;;;;;;4981176;28;20050;-68
2022/12/15 06:58:49;;;;;;;59.65;26.35;;;;;;;;;;4981802;28;20129;-68
2022/12/15 07:01:16;;;;;;;54.55;24.38;;;;;;;;;;4980599;28;20053;-68
2022/12/15 07:03:41;;;;;;;32.42;15.23;;;;;;;;;;4980482;28;20050;-68
2022/12/15 07:06:09;;;;;;;48.50;24.83;;;;;;;;;;4979863;28;20053;-67
2022/12/15 07:08:35;;;;;;;58.83;29.08;;;;;;;;;;4994774;28;20057;-67
2022/12/15 07:11:05;;;;;;;50.72;26.25;;;;;;;;;;4980322;28;20042;-67
2022/12/15 07:13:30;;;;;;;60.20;28.15;;;;;;;;;;4980033;28;20065;-68
2022/12/15 07:16:04;;;;;;;52.65;24.40;;;;;;;;;;4981056;28;20046;-68
2022/12/15 07:18:30;;;;;;;51.70;25.42;;;;;;;;;;4980544;28;20054;-68
2022/12/15 07:20:56;;;;;;;45.70;21.42;;;;;;;;;;4981506;28;20117;-67
2022/12/15 07:23:21;;;;;;;63.03;30.20;;;;;;;;;;4981517;28;20034;-68
2022/12/15 07:25:47;;;;;;;50.55;25.83;;;;;;;;;;4981803;28;20057;-68
2022/12/15 07:28:13;;;;;;;51.42;25.25;;;;;;;;;;4980585;28;20523;-68
2022/12/15 07:30:38;;;;;;;46.33;24.10;;;;;;;;;;4981516;28;20065;-68
2022/12/15 07:33:04;;;;;;;52.25;23.42;;;;;;;;;;4981856;28;20519;-67
2022/12/15 07:35:30;;;;;;;47.25;23.30;;;;;;;;;;4980810;28;20054;-69
2022/12/15 07:37:55;;;;;;;54.45;26.27;;;;;;;;;;4980699;28;20456;-68
2022/12/15 07:40:21;;;;;;;48.58;24.23;;;;;;;;;;4980129;28;20117;-69
2022/12/15 07:42:47;;;;;;;54.92;27.80;;;;;;;;;;4980507;28;20069;-70
2022/12/15 07:45:13;;;;;;;47.85;23.80;;;;;;;;;;4966377;28;20149;-69
2022/12/15 07:47:38;;;;;;;48.90;24.00;;;;;;;;;;4980065;28;20035;-69
2022/12/15 07:50:04;;;;;;;53.55;25.45;;;;;;;;;;4980464;28;20101;-69
2022/12/15 07:52:30;;;;;;;54.70;27.67;;;;;;;;;;4980635;28;20511;-69
2022/12/15 07:54:55;;;;;;;35.00;18.95;;;;;;;;;;4980704;28;20056;-69
2022/12/15 07:57:22;;;;;;;41.72;21.88;;;;;;;;;;4969603;28;20180;-69
2022/12/15 07:59:49;;;;;;;40.25;20.83;;;;;;;;;;4977874;28;20054;-69
2022/12/15 08:02:14;;;;;;;50.28;24.83;;;;;;;;;;4978900;28;20072;-69
2022/12/15 08:04:40;;;;;;;38.80;20.05;;;;;;;;;;4979728;28;20602;-69
2022/12/15 08:07:07;;;;;;;55.42;26.45;;;;;;;;;;4979740;28;20034;-69
2022/12/15 08:09:33;;;;;;;54.78;26.33;;;;;;;;;;4980358;28;20042;-69
2022/12/15 08:11:59;;;;;;;42.70;22.67;;;;;;;;;;4979723;28;20423;-69
2022/12/15 08:14:24;;;;;;;46.80;23.52;;;;;;;;;;4980990;28;20169;-69
2022/12/15 08:16:50;;;;;;;54.05;26.65;;;;;;;;;;4980523;28;20407;-69
2022/12/15 08:19:16;;;;;;;50.45;25.10;;;;;;;;;;4979548;28;20042;-70
2022/12/15 08:21:46;;;;;;;60.42;27.90;;;;;;;;;;4980704;28;20058;-69
2022/12/15 08:24:13;;;;;;;58.85;27.77;;;;;;;;;;4980168;28;20403;-70
2022/12/15 08:26:39;;;;;;;50.92;26.10;;;;;;;;;;4980635;28;20119;-70
2022/12/15 08:29:07;;;;;;;63.92;31.13;;;;;;;;;;4980401;28;20097;-69
2022/12/15 08:31:33;;;;;;;56.40;27.15;;;;;;;;;;4979965;28;20054;-69
2022/12/15 08:34:00;;;;;;;58.92;27.63;;;;;;;;;;4979809;28;20057;-69
2022/12/15 08:36:26;;;;;;;57.42;27.75;;;;;;;;;;4980458;28;20043;-69
2022/12/15 08:38:51;;;;;;;55.22;29.55;;;;;;;;;;4980249;28;20109;-69
2022/12/15 08:41:22;;;;;;;49.97;25.50;;;;;;;;;;4979617;28;20050;-69
2022/12/15 08:43:49;;;;;;;47.50;25.23;;;;;;;;;;4978189;28;20141;-69
2022/12/15 08:46:20;;;;;;;52.17;25.45;;;;;;;;;;4980137;28;20042;-69
2022/12/15 08:48:46;;;;;;;54.30;27.40;;;;;;;;;;4980182;28;20415;-69
2022/12/15 08:51:11;;;;;;;46.25;24.77;;;;;;;;;;4979852;28;20514;-70
2022/12/15 08:53:37;;;;;;;43.67;22.63;;;;;;;;;;4981319;28;20148;-69
2022/12/15 08:56:05;;;;;;;47.20;25.75;;;;;;;;;;4980148;28;20802;-69
2022/12/15 08:58:30;;;;;;;43.55;23.95;;;;;;;;;;4981291;28;20058;-68
2022/12/15 09:01:05;;;;;;;47.30;23.45;;;;;;;;;;4983491;28;20042;-69
2022/12/15 09:03:31;;;;;;;45.70;24.20;;;;;;;;;;4984094;28;20448;-70
2022/12/15 09:06:01;;;;;;;47.78;23.85;;;;;;;;;;4984743;28;20765;-68
2022/12/15 09:08:29;;;;;;;45.58;24.17;;;;;;;;;;4982563;28;20038;-69
2022/12/15 09:10:57;;;;;;;46.50;23.52;;;;;;;;;;4983827;28;20194;-70
2022/12/15 09:13:22;;;;;;;45.65;24.17;;;;;;;;;;4983498;28;20475;-69
2022/12/15 09:15:55;;;;;;;44.25;25.85;;;;;;;;;;4984073;28;20057;-68
2022/12/15 09:18:21;;;;;;;45.03;24.42;;;;;;;;;;4982194;28;20511;-69
2022/12/15 09:20:46;;;;;;;42.30;24.27;;;;;;;;;;4983622;28;20210;-69
2022/12/15 09:23:11;;;;;;;36.58;21.60;;;;;;;;;;4983539;28;20083;-68
2022/12/15 09:25:37;;;;;;;45.65;26.05;;;;;;;;;;4984090;28;20046;-69
2022/12/15 09:28:02;;;;;;;53.78;27.38;;;;;;;;;;4998158;28;20073;-69
2022/12/15 09:30:28;;;;;;;47.65;25.95;;;;;;;;;;4983042;28;20107;-69
2022/12/15 09:32:53;;;;;;;57.03;29.00;;;;;;;;;;4982732;28;20488;-68
2022/12/15 09:35:19;;;;;;;49.72;25.33;;;;;;;;;;4983411;28;20038;-69
2022/12/15 09:37:44;;;;;;;55.10;27.55;;;;;;;;;;4983208;28;20069;-68
2022/12/15 09:40:12;;;;;;;59.65;29.75;;;;;;;;;;4982319;28;20046;-69
2022/12/15 09:42:38;;;;;;;50.70;26.55;;;;;;;;;;4983214;28;20050;-68
2022/12/15 09:45:12;;;;;;;57.70;30.02;;;;;;;;;;4983635;28;20049;-69
2022/12/15 09:47:55;;;;;;;53.35;26.52;;;;;;;;;;4983139;28;20068;-69
2022/12/15 09:50:26;;;;;;;;;;;;;;;;;;4997577;28;20046;-69
2022/12/15 09:52:58;;;;;;;53.63;27.38;;;;;;;;;;4982584;28;19931;-69
2022/12/15 09:55:25;;;;;;;53.50;26.27;;;;;;;;;;4983026;28;20050;-69
2022/12/15 09:58:02;;;;;;;59.67;28.92;;;;;;;;;;4982749;28;20042;-69
2022/12/15 10:00:41;;;;;;;62.63;30.58;;;;;;;;;;4983069;28;20506;-68
2022/12/15 10:03:33;;;;;;;56.45;27.83;;;;;;;;;;4982666;28;20054;-69
2022/12/15 10:06:17;;;;;;;48.72;25.02;;;;;;;;;;4979589;28;20978;-68
2022/12/15 10:08:48;;;;;;;54.22;26.25;;;;;;;;;;4980562;28;20042;-69
2022/12/15 10:11:39;;;;;;;53.43;28.07;;;;;;;;;;4980905;28;20136;-69
2022/12/15 10:14:15;;;;;;;49.40;26.03;;;;;;;;;;4982206;28;20046;-69
2022/12/15 10:17:05;;;;;;;52.95;26.27;;;;;;;;;;4983401;28;20392;-69
2022/12/15 10:19:48;;;;;;;54.08;27.88;;;;;;;;;;4981858;28;20054;-69
2022/12/15 10:22:21;;;;;;;44.38;24.92;;;;;;;;;;4981667;28;20042;-69
2022/12/15 10:24:47;;;;;;;50.90;26.83;;;;;;;;;;4981021;28;20551;-69
2022/12/15 10:27:15;;;;;;;56.15;28.15;;;;;;;;;;4982234;28;20108;-68
2022/12/15 10:29:46;;;;;;;54.03;28.27;;;;;;;;;;4982448;28;20419;-69
2022/12/15 10:32:49;;;;;;;59.53;33.03;;;;;;;;;;4981731;28;20778;-69
2022/12/15 10:35:19;;;;;;;45.03;25.73;;;;;;;;;;4981293;28;20039;-69
2022/12/15 10:37:45;;;;;;;47.95;25.17;;;;;;;;;;4982137;28;20057;-69
2022/12/15 10:40:17;;;;;;;48.88;24.52;;;;;;;;;;4982866;28;20418;-69
2022/12/15 10:42:49;;;;;;;43.80;24.95;;;;;;;;;;4981365;28;20054;-69
2022/12/15 10:45:37;;;;;;;;;;;;;;;;;;4981501;28;20035;-70
2022/12/15 10:48:05;;;;;;;54.25;25.48;;;;;;;;;;4981409;28;19925;-70
2022/12/15 10:50:32;;;;;;;55.13;30.15;;;;;;;;;;4982191;28;20061;-68
2022/12/15 10:52:58;;;;;;;46.10;25.38;;;;;;;;;;4981345;28;20038;-68
2022/12/15 10:55:42;;;;;;;49.47;25.98;;;;;;;;;;4976331;28;20050;-68
2022/12/15 10:58:20;;;;;;;50.30;25.63;;;;;;;;;;4979915;28;20081;-69
2022/12/15 11:00:47;;;;;;;55.40;29.15;;;;;;;;;;4980312;28;20057;-71
2022/12/15 11:03:24;;;;;;;58.30;30.55;;;;;;;;;;4979791;28;20045;-70
2022/12/15 11:05:55;;;;;;;54.50;28.23;;;;;;;;;;4984812;28;20058;-71
2022/12/15 11:08:22;;;;;;;52.03;25.05;;;;;;;;;;4979511;28;20045;-71
2022/12/15 11:13:38;;;;;;;62.42;32.60;;;;;;;;;;4980336;28;21062;-70
2022/12/15 11:16:14;;;;;;;63.58;31.67;;;;;;;;;;4980459;28;20108;-70
2022/12/15 11:18:52;;;;;;;58.58;30.15;;;;;;;;;;4979150;28;20057;-70
2022/12/15 11:21:18;;;;;;;45.08;22.48;;;;;;;;;;4978646;28;20046;-70
2022/12/15 11:24:04;;;;;;;61.83;28.30;;;;;;;;;;4980961;28;20058;-70
2022/12/15 11:26:45;;;;;;;52.90;27.85;;;;;;;;;;4980467;28;20344;-70
2022/12/15 11:29:29;;;;;;;53.25;24.80;;;;;;;;;;4978612;28;20050;-71
2022/12/15 11:31:55;;;;;;;52.15;27.20;;;;;;;;;;4979517;28;20054;-69
2022/12/15 11:34:35;;;;;;;47.85;25.38;;;;;;;;;;4981271;28;20038;-69
2022/12/15 11:37:17;;;;;;;50.50;24.70;;;;;;;;;;4980323;28;20403;-69
2022/12/15 11:39:58;;;;;;;51.90;26.55;;;;;;;;;;4978115;28;20511;-69
2022/12/15 11:43:04;;;;;;;54.97;28.70;;;;;;;;;;4980035;28;20042;-68
2022/12/15 11:45:32;;;;;;;41.40;21.42;;;;;;;;;;4979833;28;21404;-68
2022/12/15 11:48:08;;;;;;;48.33;25.02;;;;;;;;;;4980634;28;20042;-68
2022/12/15 11:50:58;;;;;;;52.72;26.27;;;;;;;;;;4980865;28;20057;-68
2022/12/15 11:53:48;;;;;;;53.92;28.30;;;;;;;;;;4978702;28;20060;-68
2022/12/15 11:56:34;;;;;;;38.28;19.90;;;;;;;;;;4980861;28;20042;-68
2022/12/15 11:59:17;;;;;;;46.03;24.83;;;;;;;;;;4980627;28;20042;-68
2022/12/15 12:02:10;;;;;;;53.65;26.13;;;;;;;;;;4977815;28;20133;-68
2022/12/15 12:04:57;;;;;;;47.67;23.90;;;;;;;;;;4980457;28;20070;-67
2022/12/15 12:07:51;;;;;;;55.40;25.75;;;;;;;;;;4978015;28;20430;-68
2022/12/15 12:10:25;;;;;;;52.03;26.00;;;;;;;;;;4978139;28;20050;-68
2022/12/15 12:13:03;;;;;;;48.90;25.10;;;;;;;;;;4978759;28;20054;-68
2022/12/15 12:15:52;;;;;;;49.28;25.55;;;;;;;;;;4977813;28;20181;-68
2022/12/15 12:18:24;;;;;;;44.67;21.15;;;;;;;;;;4978094;28;20129;-68
2022/12/15 12:21:05;;;;;;;45.92;23.42;;;;;;;;;;4978117;28;20050;-68
2022/12/15 12:24:00;;;;;;;45.05;24.02;;;;;;;;;;4979699;28;20120;-68
2022/12/15 12:26:40;;;;;;;48.00;23.70;;;;;;;;;;4979983;28;20054;-68
2022/12/15 12:29:41;;;;;;;50.85;25.02;;;;;;;;;;4979558;28;20049;-67
2022/12/15 12:32:19;;;;;;;48.00;26.20;;;;;;;;;;4957028;28;20050;-69
2022/12/15 12:34:55;;;;;;;49.00;27.20;;;;;;;;;;4984534;28;20047;-67
2022/12/15 12:38:03;;;;;;;46.15;24.83;;;;;;;;;;4983575;28;20046;-67
2022/12/15 12:41:01;;;;;;;34.92;19.10;;;;;;;;;;4979938;28;20058;-67
2022/12/15 12:43:32;;;;;;;48.25;24.08;;;;;;;;;;4981894;28;20073;-67
2022/12/15 12:46:13;;;;;;;50.08;25.83;;;;;;;;;;4982036;28;20054;-67
2022/12/15 12:48:47;;;;;;;34.25;17.95;;;;;;;;;;4981144;28;20407;-67
2022/12/15 12:51:22;;;;;;;51.15;27.42;;;;;;;;;;4982291;28;20141;-68
2022/12/15 12:53:47;;;;;;;51.25;26.08;;;;;;;;;;4979910;28;20933;-68
2022/12/15 12:56:36;;;;;;;49.05;25.90;;;;;;;;;;4982450;28;20046;-68
2022/12/15 12:59:07;;;;;;;41.38;21.95;;;;;;;;;;4980402;28;20161;-68
2022/12/15 13:01:35;;;;;;;54.10;28.17;;;;;;;;;;4981782;28;20092;-68
2022/12/15 13:04:12;;;;;;;39.53;19.98;;;;;;;;;;4984118;28;20053;-68
2022/12/15 13:06:38;;;;;;;54.75;26.55;;;;;;;;;;4984199;28;20484;-67
2022/12/15 13:09:15;;;;;;;59.33;28.55;;;;;;;;;;4981845;28;20128;-68
2022/12/15 13:11:47;;;;;;;50.50;25.20;;;;;;;;;;4980167;28;20733;-68
2022/12/15 13:14:28;;;;;;;47.35;24.63;;;;;;;;;;4976665;28;20075;-68
2022/12/15 13:17:03;;;;;;;43.95;23.48;;;;;;;;;;4982890;28;20057;-68
2022/12/15 13:19:57;;;;;;;51.45;25.65;;;;;;;;;;4980859;28;20050;-68
2022/12/15 13:22:43;;;;;;;43.75;22.38;;;;;;;;;;4982810;28;20042;-68
2022/12/15 13:25:34;;;;;;;46.42;24.63;;;;;;;;;;4983715;28;20050;-67
2022/12/15 13:28:15;;;;;;;47.43;24.07;;;;;;;;;;4980731;28;20256;-67
2022/12/15 13:31:15;;;;;;;54.97;28.47;;;;;;;;;;4982060;28;20057;-68
2022/12/15 13:33:43;;;;;;;45.88;24.20;;;;;;;;;;4983044;28;20574;-68
2022/12/15 13:36:09;;;;;;;55.03;26.52;;;;;;;;;;4983618;28;20105;-68
2022/12/15 13:38:52;;;;;;;51.10;26.55;;;;;;;;;;4983494;28;20054;-68
2022/12/15 13:41:25;;;;;;;31.05;18.20;;;;;;;;;;4981352;28;20897;-68
2022/12/15 13:43:52;;;;;;;63.63;28.15;;;;;;;;;;4983040;28;20076;-68
2022/12/15 13:46:31;;;;;;;55.67;27.77;;;;;;;;;;4998218;28;20065;-68
2022/12/15 13:49:32;;;;;;;60.13;29.42;;;;;;;;;;4983149;28;20042;-67
2022/12/15 13:52:01;;;;;;;53.58;26.90;;;;;;;;;;4979487;28;20138;-67
2022/12/15 13:54:34;;;;;;;58.42;28.15;;;;;;;;;;4982541;28;20140;-67
2022/12/15 13:57:08;;;;;;;61.00;30.05;;;;;;;;;;4983757;28;20471;-67
2022/12/15 13:59:39;;;;;;;56.53;27.92;;;;;;;;;;4982184;28;20066;-67
2022/12/15 14:02:34;;;;;;;59.30;27.23;;;;;;;;;;4981986;28;20054;-68
2022/12/15 14:05:13;;;;;;;51.58;26.13;;;;;;;;;;4983672;28;20097;-68
2022/12/15 14:07:41;;;;;;;56.03;28.10;;;;;;;;;;4983099;28;20054;-68
2022/12/15 14:10:19;;;;;;;51.42;24.73;;;;;;;;;;4983468;28;20092;-68
2022/12/15 14:12:47;;;;;;;53.50;26.75;;;;;;;;;;4982171;28;20082;-68
2022/12/15 14:15:14;;;;;;;45.60;22.30;;;;;;;;;;4981690;28;20392;-68
2022/12/15 14:17:40;;;;;;;64.10;30.20;;;;;;;;;;4982654;28;20141;-68
2022/12/15 14:20:19;;;;;;;61.13;29.80;;;;;;;;;;4982587;28;20073;-68
2022/12/15 14:22:44;;;;;;;71.75;31.42;;;;;;;;;;4982124;28;20096;-69
2022/12/15 14:25:22;;;;;;;78.32;34.67;;;;;;;;;;4980777;28;20140;-68
2022/12/15 14:27:48;;;;;;;64.97;29.63;;;;;;;;;;4979791;28;20042;-69
2022/12/15 14:30:24;;;;;;;65.22;30.13;;;;;;;;;;4982501;28;20046;-68
2022/12/15 14:33:14;;;;;;;67.78;30.25;;;;;;;;;;4981449;28;20050;-70
2022/12/15 14:35:43;;;;;;;73.82;31.92;;;;;;;;;;4982034;28;20626;-68
2022/12/15 14:38:16;;;;;;;71.47;30.77;;;;;;;;;;4981035;28;20821;-69
2022/12/15 14:40:45;;;;;;;86.93;34.42;;;;;;;;;;4980198;28;20082;-68
2022/12/15 14:43:27;;;;;;;68.05;32.67;;;;;;;;;;4982162;28;20893;-71
2022/12/15 14:45:55;;;;;;;47.03;20.98;;;;;;;;;;4982063;28;20137;-69
2022/12/15 14:48:28;;;;;;;66.20;30.50;;;;;;;;;;4980915;28;20402;-69
2022/12/15 14:50:58;;;;;;;77.93;31.65;;;;;;;;;;4981371;28;20331;-68
2022/12/15 14:53:31;;;;;;;79.57;32.92;;;;;;;;;;4981879;28;20043;-69
2022/12/15 14:56:11;;;;;;;58.65;26.20;;;;;;;;;;4980710;28;20054;-69
2022/12/15 14:58:39;;;;;;;76.30;34.72;;;;;;;;;;4981286;28;20132;-69
2022/12/15 15:01:25;;;;;;;83.95;32.85;;;;;;;;;;4981164;28;20148;-69
2022/12/15 15:04:23;;;;;;;46.60;22.13;;;;;;;;;;4979896;28;20050;-70
2022/12/15 15:06:54;;;;;;;71.28;32.10;;;;;;;;;;4981803;28;20140;-69
2022/12/15 15:09:26;;;;;;;77.05;33.53;;;;;;;;;;4979858;28;20042;-69
2022/12/15 15:11:55;;;;;;;87.25;34.97;;;;;;;;;;4981261;28;20049;-69
2022/12/15 15:14:27;;;;;;;105.22;38.08;;;;;;;;;;4981952;28;20054;-68
2022/12/15 15:17:15;;;;;;;93.10;35.28;;;;;;;;;;4981661;28;20058;-69
2022/12/15 15:19:57;;;;;;;75.55;31.75;;;;;;;;;;4980836;28;20062;-69
2022/12/15 15:22:39;;;;;;;104.15;38.60;;;;;;;;;;4980342;28;20050;-69
2022/12/15 15:25:28;;;;;;;87.43;33.33;;;;;;;;;;4981967;28;20061;-69
2022/12/15 15:28:12;;;;;;;62.45;23.45;;;;;;;;;;4978590;28;20046;-69
2022/12/15 15:30:45;;;;;;;93.68;36.08;;;;;;;;;;4995714;28;20068;-69
2022/12/15 15:33:12;;;;;;;86.03;31.65;;;;;;;;;;4981068;28;20109;-68
2022/12/15 15:35:41;;;;;;;95.28;34.13;;;;;;;;;;4981036;28;20053;-69
2022/12/15 15:38:33;;;;;;;110.38;42.25;;;;;;;;;;4980152;28;20058;-69
2022/12/15 15:41:00;;;;;;;96.88;34.75;;;;;;;;;;4980767;28;20507;-69
2022/12/15 15:43:31;;;;;;;81.35;30.95;;;;;;;;;;4976215;28;20062;-70
2022/12/15 15:46:04;;;;;;;93.45;37.95;;;;;;;;;;4978553;28;20086;-70
2022/12/15 15:48:34;;;;;;;98.88;39.97;;;;;;;;;;4976897;28;20082;-69
2022/12/15 15:51:01;;;;;;;84.35;31.23;;;;;;;;;;4976774;28;20054;-69
2022/12/15 15:53:30;;;;;;;118.57;40.83;;;;;;;;;;4976236;28;20816;-68
2022/12/15 15:55:56;;;;;;;100.63;34.63;;;;;;;;;;4977702;28;20065;-69
2022/12/15 15:58:22;;;;;;;101.60;37.05;;;;;;;;;;4975974;28;20082;-69
2022/12/15 16:00:47;;;;;;;99.90;36.65;;;;;;;;;;4976940;28;20539;-69
2022/12/15 16:03:13;;;;;;;62.05;26.75;;;;;;;;;;4976729;28;20057;-69
2022/12/15 16:05:40;;;;;;;98.60;34.30;;;;;;;;;;4976931;28;20064;-69
2022/12/15 16:08:12;;;;;;;94.82;36.50;;;;;;;;;;4975790;28;20979;-69
2022/12/15 16:10:38;;;;;;;105.85;40.63;;;;;;;;;;4977054;28;20046;-68
2022/12/15 16:13:03;;;;;;;93.50;33.45;;;;;;;;;;4977597;28;20046;-68
2022/12/15 16:15:33;;;;;;;101.22;36.08;;;;;;;;;;4975824;28;20046;-69
2022/12/15 16:17:59;;;;;;;67.80;28.17;;;;;;;;;;4977535;28;20050;-68
2022/12/15 16:20:28;;;;;;;97.88;34.10;;;;;;;;;;4978913;28;20116;-68
2022/12/15 16:22:59;;;;;;;57.30;23.08;;;;;;;;;;4980156;28;20050;-68
2022/12/15 16:25:51;;;;;;;90.18;32.33;;;;;;;;;;4979354;28;20034;-69
2022/12/15 16:28:21;;;;;;;;;;;;;;;;;;4977530;28;20165;-69
2022/12/15 16:30:47;;;;;;;104.35;35.92;;;;;;;;;;4979634;28;19921;-68
2022/12/15 16:33:13;;;;;;;116.38;38.75;;;;;;;;;;4979884;28;20077;-69
2022/12/15 16:35:40;;;;;;;138.20;44.38;;;;;;;;;;4995835;28;20046;-68
2022/12/15 16:38:14;;;;;;;129.75;39.58;;;;;;;;;;4979039;28;20065;-69
2022/12/15 16:40:40;;;;;;;137.95;41.25;;;;;;;;;;4979693;28;20510;-68
2022/12/15 16:43:13;;;;;;;156.90;45.95;;;;;;;;;;4980914;28;20050;-68
2022/12/15 16:45:42;;;;;;;122.18;37.88;;;;;;;;;;4979371;28;20062;-69
2022/12/15 16:48:07;;;;;;;122.00;36.88;;;;;;;;;;4979537;28;20499;-69
2022/12/15 16:50:35;;;;;;;118.90;33.95;;;;;;;;;;4979900;28;20049;-68
2022/12/15 16:53:02;;;;;;;183.82;54.10;;;;;;;;;;4979953;28;20054;-69
2022/12/15 16:55:29;;;;;;;144.77;40.78;;;;;;;;;;4980035;28;20088;-69
2022/12/15 16:57:57;;;;;;;176.98;44.88;;;;;;;;;;4978951;28;20057;-69
2022/12/15 17:00:26;;;;;;;129.05;38.88;;;;;;;;;;4978676;28;20054;-69
2022/12/15 17:02:52;;;;;;;142.10;40.38;;;;;;;;;;4978568;28;20054;-69
2022/12/15 17:05:18;;;;;;;139.45;40.17;;;;;;;;;;4979749;28;20137;-69
2022/12/15 17:07:50;;;;;;;155.52;44.20;;;;;;;;;;4980501;28;20046;-69
2022/12/15 17:10:19;;;;;;;151.02;43.55;;;;;;;;;;4979163;28;20035;-69